createdAt,value
2023-04-18T00:00:05.077Z,28.30
2023-04-18T00:01:05.115Z,25.77
2023-04-18T00:02:05.187Z,26.14
2023-04-18T00:03:05.349Z,25.91
2023-04-18T00:04:05.531Z,26.00
2023-04-18T00:05:05.376Z,25.58
2023-04-18T00:06:05.275Z,30.04
2023-04-18T00:07:05.271Z,28.03
2023-04-18T00:08:05.333Z,27.63
2023-04-18T00:09:05.367Z,26.73
2023-04-18T00:10:05.382Z,25.51
2023-04-18T00:11:05.400Z,27.69
2023-04-18T00:12:05.418Z,28.24
2023-04-18T00:13:05.478Z,26.87
2023-04-18T00:14:05.500Z,26.34
2023-04-18T00:15:05.506Z,27.16
2023-04-18T00:16:05.544Z,26.02
2023-04-18T00:17:05.636Z,25.31
2023-04-18T00:18:05.602Z,26.34
2023-04-18T00:19:05.643Z,29.34
2023-04-18T00:20:05.690Z,25.40
2023-04-18T00:21:05.710Z,26.65
2023-04-18T00:22:05.755Z,26.58
2023-04-18T00:23:05.782Z,27.72
2023-04-18T00:24:05.796Z,27.67
2023-04-18T00:25:05.796Z,27.56
2023-04-18T00:26:05.847Z,30.66
2023-04-18T00:27:05.857Z,30.70
2023-04-18T00:28:05.887Z,27.76
2023-04-18T00:29:05.933Z,27.27
2023-04-18T00:30:05.972Z,27.44
2023-04-18T00:31:06.045Z,32.75
2023-04-18T00:32:06.063Z,26.83
2023-04-18T00:33:06.234Z,27.18
2023-04-18T00:34:06.141Z,27.80
2023-04-18T00:35:06.155Z,28.14
2023-04-18T00:36:06.158Z,26.78
2023-04-18T00:37:06.190Z,25.77
2023-04-18T00:38:06.226Z,28.55
2023-04-18T00:39:06.285Z,26.03
2023-04-18T00:40:06.313Z,26.64
2023-04-18T00:41:06.341Z,28.56
2023-04-18T00:42:06.358Z,25.00
2023-04-18T00:43:06.403Z,27.29
2023-04-18T00:44:06.441Z,27.08
2023-04-18T00:45:06.475Z,28.41
2023-04-18T00:46:06.543Z,25.00
2023-04-18T00:47:06.537Z,25.90
2023-04-18T00:48:06.656Z,26.79
2023-04-18T00:49:06.578Z,27.64
2023-04-18T00:50:06.635Z,25.00
2023-04-18T00:51:06.693Z,29.96
2023-04-18T00:52:06.684Z,29.33
2023-04-18T00:53:06.732Z,26.34
2023-04-18T00:54:06.767Z,31.68
2023-04-18T00:55:06.811Z,27.59
2023-04-18T00:56:06.842Z,25.80
2023-04-18T00:57:06.841Z,27.82
2023-04-18T00:58:06.878Z,27.09
2023-04-18T00:59:06.927Z,27.42
2023-04-18T01:00:06.957Z,27.81
2023-04-18T01:01:07.023Z,28.38
2023-04-18T01:02:07.054Z,26.12
2023-04-18T01:03:07.120Z,26.03
2023-04-18T01:04:07.201Z,25.03
2023-04-18T01:05:07.134Z,25.00
2023-04-18T01:06:07.154Z,25.55
2023-04-18T01:07:07.156Z,26.32
2023-04-18T01:08:07.217Z,29.31
2023-04-18T01:09:07.225Z,30.33
2023-04-18T01:10:07.285Z,27.93
2023-04-18T01:11:07.303Z,31.01
2023-04-18T01:12:07.348Z,27.23
2023-04-18T01:13:07.370Z,27.22
2023-04-18T01:14:07.440Z,26.14
2023-04-18T01:15:07.426Z,30.06
2023-04-18T01:16:07.493Z,27.65
2023-04-18T01:17:07.490Z,29.38
2023-04-18T01:18:07.517Z,27.15
2023-04-18T01:19:07.548Z,27.72
2023-04-18T01:20:07.575Z,28.93
2023-04-18T01:21:07.618Z,28.20
2023-04-18T01:22:07.681Z,27.73
2023-04-18T01:23:07.731Z,31.03
2023-04-18T01:24:07.716Z,29.29
2023-04-18T01:25:07.776Z,26.38
2023-04-18T01:26:07.817Z,26.99
2023-04-18T01:27:07.854Z,29.00
2023-04-18T01:28:07.912Z,28.47
2023-04-18T01:29:07.897Z,27.31
2023-04-18T01:30:07.943Z,27.58
2023-04-18T01:31:08.026Z,26.53
2023-04-18T01:32:08.032Z,29.16
2023-04-18T01:33:08.047Z,27.44
2023-04-18T01:34:08.191Z,25.00
2023-04-18T01:35:08.176Z,27.64
2023-04-18T01:36:08.172Z,28.55
2023-04-18T01:37:08.236Z,26.40
2023-04-18T01:38:08.226Z,25.00
2023-04-18T01:39:08.268Z,28.49
2023-04-18T01:40:08.316Z,26.45
2023-04-18T01:41:08.347Z,27.99
2023-04-18T01:42:08.413Z,26.05
2023-04-18T01:43:08.431Z,27.42
2023-04-18T01:44:08.458Z,28.59
2023-04-18T01:45:08.520Z,27.15
2023-04-18T01:46:08.581Z,28.11
2023-04-18T01:47:08.583Z,29.58
2023-04-18T01:48:08.610Z,29.00
2023-04-18T01:49:08.667Z,25.69
2023-04-18T01:50:08.712Z,28.68
2023-04-18T01:51:09.632Z,25.96
2023-04-18T01:52:08.797Z,26.85
2023-04-18T01:53:08.820Z,27.06
2023-04-18T01:54:09.633Z,27.02
2023-04-18T01:55:08.923Z,27.86
2023-04-18T01:56:08.962Z,26.11
2023-04-18T01:57:09.007Z,27.14
2023-04-18T01:58:09.057Z,27.77
2023-04-18T01:59:09.112Z,27.29
2023-04-18T02:00:09.091Z,27.43
2023-04-18T02:01:09.208Z,27.00
2023-04-18T02:02:09.269Z,25.44
2023-04-18T02:03:09.436Z,26.50
2023-04-18T02:04:09.314Z,28.95
2023-04-18T02:05:09.332Z,27.78
2023-04-18T02:06:09.424Z,26.16
2023-04-18T02:07:09.394Z,27.08
2023-04-18T02:08:09.436Z,25.95
2023-04-18T02:09:09.556Z,26.75
2023-04-18T02:10:09.536Z,27.27
2023-04-18T02:11:09.570Z,26.85
2023-04-18T02:12:09.621Z,28.62
2023-04-18T02:13:09.664Z,28.52
2023-04-18T02:14:09.682Z,27.87
2023-04-18T02:15:09.749Z,27.08
2023-04-18T02:16:09.786Z,29.20
2023-04-18T02:17:09.822Z,29.12
2023-04-18T02:18:09.819Z,27.52
2023-04-18T02:19:09.890Z,27.47
2023-04-18T02:20:09.940Z,27.40
2023-04-18T02:21:09.980Z,27.06
2023-04-18T02:22:10.009Z,27.96
2023-04-18T02:23:10.079Z,26.98
2023-04-18T02:24:10.104Z,27.17
2023-04-18T02:25:10.100Z,27.81
2023-04-18T02:26:10.156Z,30.11
2023-04-18T02:27:10.204Z,29.14
2023-04-18T02:28:10.220Z,28.40
2023-04-18T02:29:10.313Z,25.93
2023-04-18T02:30:10.342Z,27.58
2023-04-18T02:31:10.379Z,28.01
2023-04-18T02:32:10.493Z,28.87
2023-04-18T02:33:10.459Z,28.08
2023-04-18T02:34:10.450Z,26.61
2023-04-18T02:35:10.524Z,26.03
2023-04-18T02:36:10.556Z,27.53
2023-04-18T02:37:10.623Z,26.87
2023-04-18T02:38:10.629Z,28.06
2023-04-18T02:39:10.729Z,28.10
2023-04-18T02:40:10.749Z,27.09
2023-04-18T02:41:10.757Z,26.43
2023-04-18T02:42:10.835Z,29.00
2023-04-18T02:43:10.896Z,25.38
2023-04-18T02:44:11.011Z,27.41
2023-04-18T02:45:10.990Z,29.21
2023-04-18T02:46:11.101Z,26.29
2023-04-18T02:47:11.050Z,27.27
2023-04-18T02:48:11.131Z,28.40
2023-04-18T02:49:11.145Z,25.20
2023-04-18T02:50:11.223Z,28.09
2023-04-18T02:51:11.242Z,27.58
2023-04-18T02:52:11.265Z,25.33
2023-04-18T02:53:11.285Z,26.22
2023-04-18T02:54:11.598Z,25.26
2023-04-18T02:55:11.378Z,26.20
2023-04-18T02:56:11.428Z,27.84
2023-04-18T02:57:11.490Z,27.81
2023-04-18T02:58:11.533Z,27.90
2023-04-18T02:59:11.550Z,27.67
2023-04-18T03:00:11.642Z,25.43
2023-04-18T03:01:11.702Z,27.31
2023-04-18T03:02:11.760Z,27.79
2023-04-18T03:03:11.745Z,28.24
2023-04-18T03:04:11.880Z,31.82
2023-04-18T03:05:11.842Z,26.60
2023-04-18T03:06:11.833Z,27.65
2023-04-18T03:07:11.870Z,27.28
2023-04-18T03:08:11.937Z,29.18
2023-04-18T03:09:12.028Z,27.84
2023-04-18T03:10:12.029Z,27.87
2023-04-18T03:11:12.019Z,29.01
2023-04-18T03:12:12.076Z,28.16
2023-04-18T03:13:12.113Z,27.72
2023-04-18T03:14:12.318Z,30.38
2023-04-18T03:15:12.306Z,29.47
2023-04-18T03:16:12.299Z,28.68
2023-04-18T03:17:12.282Z,28.44
2023-04-18T03:18:12.344Z,27.27
2023-04-18T03:19:12.358Z,27.97
2023-04-18T03:20:12.443Z,27.43
2023-04-18T03:21:12.475Z,26.48
2023-04-18T03:22:12.511Z,28.28
2023-04-18T03:23:12.578Z,26.85
2023-04-18T03:24:12.623Z,28.00
2023-04-18T03:25:12.631Z,28.36
2023-04-18T03:26:12.707Z,28.79
2023-04-18T03:27:12.763Z,27.31
2023-04-18T03:28:12.852Z,27.15
2023-04-18T03:29:12.849Z,27.38
2023-04-18T03:30:12.857Z,28.56
2023-04-18T03:31:12.925Z,27.95
2023-04-18T03:32:12.965Z,27.44
2023-04-18T03:33:13.031Z,28.26
2023-04-18T03:34:13.341Z,25.91
2023-04-18T03:35:13.092Z,26.09
2023-04-18T03:36:13.099Z,29.06
2023-04-18T03:37:13.142Z,25.78
2023-04-18T03:38:13.189Z,25.56
2023-04-18T03:39:13.242Z,29.04
2023-04-18T03:40:13.300Z,26.20
2023-04-18T03:41:13.361Z,30.48
2023-04-18T03:42:13.424Z,25.86
2023-04-18T03:43:13.409Z,29.45
2023-04-18T03:44:13.745Z,27.45
2023-04-18T03:46:13.563Z,25.00
2023-04-18T03:47:13.574Z,29.16
2023-04-18T03:48:13.643Z,28.90
2023-04-18T03:49:13.707Z,30.06
2023-04-18T03:50:13.777Z,27.56
2023-04-18T03:51:13.779Z,25.37
2023-04-18T03:52:13.834Z,27.71
2023-04-18T03:53:13.876Z,28.63
2023-04-18T03:54:14.123Z,26.17
2023-04-18T03:55:13.946Z,26.31
2023-04-18T03:56:14.037Z,27.10
2023-04-18T03:57:14.070Z,27.02
2023-04-18T03:58:14.198Z,30.04
2023-04-18T03:59:14.183Z,29.38
2023-04-18T04:00:14.250Z,28.56
2023-04-18T04:01:14.269Z,30.64
2023-04-18T04:02:14.350Z,33.16
2023-04-18T04:03:14.443Z,29.00
2023-04-18T04:04:14.892Z,27.37
2023-04-18T04:05:14.466Z,27.62
2023-04-18T04:06:14.490Z,25.40
2023-04-18T04:07:14.532Z,25.00
2023-04-18T04:08:14.574Z,27.92
2023-04-18T04:09:14.609Z,26.12
2023-04-18T04:10:14.725Z,27.90
2023-04-18T04:11:14.692Z,29.51
2023-04-18T04:12:14.768Z,30.04
2023-04-18T04:13:14.810Z,26.31
2023-04-18T04:14:14.976Z,26.93
2023-04-18T04:15:14.914Z,28.58
2023-04-18T04:16:15.061Z,28.13
2023-04-18T04:17:15.024Z,28.31
2023-04-18T04:18:15.048Z,27.71
2023-04-18T04:19:15.090Z,28.27
2023-04-18T04:20:15.162Z,25.68
2023-04-18T04:21:15.179Z,26.31
2023-04-18T04:22:15.253Z,30.69
2023-04-18T04:23:15.280Z,27.08
2023-04-18T04:24:15.759Z,27.06
2023-04-18T04:25:15.361Z,26.10
2023-04-18T04:26:15.412Z,28.59
2023-04-18T04:27:15.472Z,28.40
2023-04-18T04:28:15.546Z,25.63
2023-04-18T04:29:15.561Z,27.26
2023-04-18T04:30:15.596Z,29.37
2023-04-18T04:31:15.632Z,27.17
2023-04-18T04:32:15.732Z,27.23
2023-04-18T04:33:15.756Z,27.25
2023-04-18T04:34:15.947Z,27.96
2023-04-18T04:35:15.895Z,28.05
2023-04-18T04:36:18.356Z,28.23
2023-04-18T04:37:15.924Z,25.00
2023-04-18T04:38:15.932Z,28.45
2023-04-18T04:39:15.921Z,28.59
2023-04-18T04:40:15.865Z,27.59
2023-04-18T04:41:15.859Z,28.76
2023-04-18T04:42:15.859Z,28.00
2023-04-18T04:43:15.866Z,27.25
2023-04-18T04:44:16.072Z,28.92
2023-04-18T04:45:15.896Z,26.85
2023-04-18T04:46:15.877Z,27.89
2023-04-18T04:47:15.806Z,26.36
2023-04-18T04:48:15.843Z,27.84
2023-04-18T04:49:15.860Z,26.43
2023-04-18T04:50:15.931Z,30.03
2023-04-18T04:51:15.811Z,25.00
2023-04-18T04:52:15.825Z,26.87
2023-04-18T04:53:15.783Z,27.08
2023-04-18T04:54:16.132Z,25.48
2023-04-18T04:55:15.801Z,25.19
2023-04-18T04:56:15.775Z,28.31
2023-04-18T04:57:15.800Z,26.86
2023-04-18T04:58:15.759Z,29.69
2023-04-18T04:59:15.770Z,27.51
2023-04-18T05:00:15.730Z,28.38
2023-04-18T05:01:15.773Z,30.02
2023-04-18T05:02:15.813Z,27.63
2023-04-18T05:03:15.805Z,28.91
2023-04-18T05:04:16.082Z,26.65
2023-04-18T05:05:15.721Z,30.86
2023-04-18T05:06:15.709Z,28.45
2023-04-18T05:07:15.717Z,29.03
2023-04-18T05:08:15.730Z,28.70
2023-04-18T05:09:15.686Z,29.26
2023-04-18T05:10:15.766Z,31.03
2023-04-18T05:11:15.667Z,30.22
2023-04-18T05:12:15.657Z,28.84
2023-04-18T05:13:15.651Z,29.67
2023-04-18T05:14:16.058Z,30.95
2023-04-18T05:15:15.619Z,31.52
2023-04-18T05:16:15.667Z,30.32
2023-04-18T05:17:15.609Z,31.43
2023-04-18T05:18:15.605Z,31.56
2023-04-18T05:19:15.596Z,33.33
2023-04-18T05:20:15.618Z,31.37
2023-04-18T05:21:15.617Z,32.86
2023-04-18T05:22:15.717Z,31.35
2023-04-18T05:23:15.725Z,32.64
2023-04-18T05:24:16.079Z,32.87
2023-04-18T05:25:15.841Z,31.54
2023-04-18T05:26:15.868Z,31.78
2023-04-18T05:27:18.041Z,32.81
2023-04-18T05:28:15.960Z,34.21
2023-04-18T05:29:16.016Z,33.32
2023-04-18T05:30:16.095Z,31.76
2023-04-18T05:31:16.162Z,37.21
2023-04-18T05:32:16.184Z,32.86
2023-04-18T05:33:16.208Z,34.23
2023-04-18T05:34:16.396Z,35.94
2023-04-18T05:35:16.314Z,37.77
2023-04-18T05:36:16.399Z,39.41
2023-04-18T05:37:16.408Z,39.15
2023-04-18T05:38:16.487Z,43.69
2023-04-18T05:39:16.474Z,40.86
2023-04-18T05:40:16.700Z,41.50
2023-04-18T05:41:16.598Z,40.91
2023-04-18T05:42:16.645Z,40.40
2023-04-18T05:43:16.672Z,49.51
2023-04-18T05:44:16.683Z,55.28
2023-04-18T05:45:16.761Z,59.86
2023-04-18T05:46:16.872Z,61.47
2023-04-18T05:47:16.812Z,64.32
2023-04-18T05:48:16.828Z,62.49
2023-04-18T05:49:16.876Z,69.20
2023-04-18T05:50:16.870Z,69.78
2023-04-18T05:51:16.894Z,74.84
2023-04-18T05:52:16.941Z,80.73
2023-04-18T05:53:16.955Z,85.09
2023-04-18T05:54:17.039Z,83.78
2023-04-18T05:55:16.993Z,91.23
2023-04-18T05:56:17.012Z,100.68
2023-04-18T05:57:17.014Z,105.16
2023-04-18T05:58:17.081Z,109.08
2023-04-18T05:59:17.052Z,115.21
2023-04-18T06:00:17.246Z,120.28
2023-04-18T06:01:17.105Z,121.94
2023-04-18T06:02:17.174Z,126.81
2023-04-18T06:03:17.455Z,129.21
2023-04-18T06:04:17.455Z,137.04
2023-04-18T06:05:17.268Z,150.10
2023-04-18T06:06:17.070Z,154.49
2023-04-18T06:07:17.099Z,158.69
2023-04-18T06:08:17.108Z,157.55
2023-04-18T06:09:17.077Z,155.71
2023-04-18T06:10:17.077Z,161.22
2023-04-18T06:11:17.084Z,171.06
2023-04-18T06:12:17.132Z,175.07
2023-04-18T06:13:17.175Z,179.19
2023-04-18T06:14:17.246Z,182.88
2023-04-18T06:15:17.285Z,182.70
2023-04-18T06:16:17.395Z,187.87
2023-04-18T06:17:17.412Z,190.35
2023-04-18T06:18:17.442Z,191.92
2023-04-18T06:19:17.509Z,193.36
2023-04-18T06:20:17.579Z,190.15
2023-04-18T06:21:17.648Z,189.93
2023-04-18T06:22:17.702Z,201.08
2023-04-18T06:23:17.778Z,199.62
2023-04-18T06:24:17.808Z,201.05
2023-04-18T06:25:17.859Z,212.95
2023-04-18T06:26:17.909Z,208.90
2023-04-18T06:27:30.677Z,227.26
2023-04-18T06:28:18.961Z,227.36
2023-04-18T06:29:17.947Z,227.81
2023-04-18T06:30:17.977Z,229.78
2023-04-18T06:31:17.982Z,230.43
2023-04-18T06:32:17.957Z,231.35
2023-04-18T06:33:17.921Z,240.57
2023-04-18T06:34:17.909Z,234.57
2023-04-18T06:35:17.917Z,238.80
2023-04-18T06:36:17.903Z,243.51
2023-04-18T06:37:17.972Z,243.32
2023-04-18T06:38:17.993Z,245.60
2023-04-18T06:39:18.040Z,247.91
2023-04-18T06:40:18.173Z,250.00
2023-04-18T06:41:18.148Z,244.67
2023-04-18T06:42:19.135Z,247.82
2023-04-18T06:43:18.169Z,247.26
2023-04-18T06:44:18.211Z,243.36
2023-04-18T06:45:18.243Z,247.04
2023-04-18T06:46:18.199Z,242.63
2023-04-18T06:47:18.138Z,250.17
2023-04-18T06:48:18.196Z,250.00
2023-04-18T06:49:18.160Z,241.85
2023-04-18T06:50:18.170Z,237.62
2023-04-18T06:51:18.126Z,240.19
2023-04-18T06:52:18.162Z,244.32
2023-04-18T06:53:18.138Z,244.18
2023-04-18T06:54:18.096Z,243.98
2023-04-18T06:55:18.111Z,244.50
2023-04-18T06:56:18.095Z,243.05
2023-04-18T06:57:18.084Z,239.96
2023-04-18T06:58:18.078Z,236.23
2023-04-18T06:59:18.093Z,237.01
2023-04-18T07:00:18.095Z,234.03
2023-04-18T07:01:18.055Z,247.18
2023-04-18T07:02:18.100Z,242.28
2023-04-18T07:03:18.337Z,245.73
2023-04-18T07:04:18.601Z,249.17
2023-04-18T07:05:18.051Z,246.99
2023-04-18T07:06:18.038Z,247.48
2023-04-18T07:07:18.007Z,250.61
2023-04-18T07:08:18.014Z,250.00
2023-04-18T07:09:18.031Z,236.75
2023-04-18T07:10:18.002Z,245.64
2023-04-18T07:11:17.985Z,245.41
2023-04-18T07:12:18.069Z,245.46
2023-04-18T07:13:17.966Z,242.86
2023-04-18T07:14:17.978Z,247.13
2023-04-18T07:15:17.952Z,246.34
2023-04-18T07:16:17.989Z,244.19
2023-04-18T07:17:17.997Z,248.92
2023-04-18T07:18:30.253Z,243.15
2023-04-18T07:19:18.936Z,243.51
2023-04-18T07:20:17.933Z,244.29
2023-04-18T07:21:17.932Z,246.96
2023-04-18T07:22:17.915Z,249.35
2023-04-18T07:23:17.915Z,252.96
2023-04-18T07:24:17.872Z,248.58
2023-04-18T07:25:18.260Z,247.18
2023-04-18T07:26:17.877Z,246.60
2023-04-18T07:27:17.873Z,249.62
2023-04-18T07:28:17.909Z,246.01
2023-04-18T07:29:17.843Z,243.93
2023-04-18T07:30:17.865Z,247.39
2023-04-18T07:31:17.838Z,250.85
2023-04-18T07:32:17.833Z,245.49
2023-04-18T07:33:17.842Z,246.50
2023-04-18T07:34:17.816Z,248.01
2023-04-18T07:35:17.815Z,250.00
2023-04-18T07:36:17.799Z,248.39
2023-04-18T07:37:17.820Z,247.56
2023-04-18T07:38:17.817Z,249.14
2023-04-18T07:39:17.815Z,249.18
2023-04-18T07:40:18.253Z,248.90
2023-04-18T07:41:17.764Z,249.27
2023-04-18T07:42:17.766Z,247.71
2023-04-18T07:43:20.438Z,248.84
2023-04-18T07:44:17.818Z,247.27
2023-04-18T07:45:18.259Z,246.70
2023-04-18T07:46:17.929Z,248.25
2023-04-18T07:47:22.247Z,248.65
2023-04-18T07:48:17.865Z,248.90
2023-04-18T07:49:17.773Z,248.89
2023-04-18T07:50:17.749Z,250.51
2023-04-18T07:51:17.761Z,252.19
2023-04-18T07:52:18.256Z,254.51
2023-04-18T07:53:17.738Z,249.22
2023-04-18T07:54:17.717Z,248.92
2023-04-18T07:55:17.732Z,247.61
2023-04-18T07:56:17.735Z,248.31
2023-04-18T07:57:17.712Z,249.26
2023-04-18T07:58:17.710Z,248.44
2023-04-18T07:59:17.717Z,249.95
2023-04-18T08:00:17.788Z,246.16
2023-04-18T08:01:17.828Z,249.79
2023-04-18T08:02:17.960Z,248.47
2023-04-18T08:03:18.069Z,250.00
2023-04-18T08:04:18.037Z,248.04
2023-04-18T08:05:18.122Z,246.62
2023-04-18T08:06:18.091Z,241.64
2023-04-18T08:07:18.176Z,237.76
2023-04-18T08:08:18.236Z,234.69
2023-04-18T08:09:18.217Z,224.50
2023-04-18T08:10:18.221Z,227.95
2023-04-18T08:11:18.238Z,225.12
2023-04-18T08:12:18.292Z,220.89
2023-04-18T08:13:18.284Z,213.15
2023-04-18T08:14:18.277Z,212.07
2023-04-18T08:15:18.280Z,207.12
2023-04-18T08:16:19.102Z,206.61
2023-04-18T08:17:18.324Z,203.10
2023-04-18T08:18:18.324Z,197.93
2023-04-18T08:19:18.329Z,192.92
2023-04-18T08:20:18.331Z,191.52
2023-04-18T08:21:18.328Z,186.19
2023-04-18T08:22:18.310Z,182.81
2023-04-18T08:23:18.308Z,180.72
2023-04-18T08:24:18.342Z,173.18
2023-04-18T08:25:18.357Z,170.81
2023-04-18T08:26:18.364Z,170.64
2023-04-18T08:27:18.382Z,166.55
2023-04-18T08:28:18.356Z,164.68
2023-04-18T08:29:18.383Z,161.95
2023-04-18T08:30:18.351Z,152.33
2023-04-18T08:31:18.371Z,151.76
2023-04-18T08:32:18.624Z,146.80
2023-04-18T08:33:18.359Z,150.17
2023-04-18T08:34:18.357Z,149.63
2023-04-18T08:35:18.383Z,144.03
2023-04-18T08:36:18.799Z,132.54
2023-04-18T08:37:18.383Z,109.90
2023-04-18T08:38:18.406Z,112.78
2023-04-18T08:39:18.423Z,116.28
2023-04-18T08:40:18.459Z,113.47
2023-04-18T08:41:18.775Z,109.80
2023-04-18T08:42:18.477Z,107.67
2023-04-18T08:43:18.519Z,112.56
2023-04-18T08:44:18.586Z,62.80
2023-04-18T08:45:18.652Z,49.67
2023-04-18T08:46:18.846Z,21.02
2023-04-18T08:47:18.666Z,34.84
2023-04-18T08:48:18.676Z,45.90
2023-04-18T08:49:18.681Z,51.57
2023-04-18T08:50:18.646Z,50.81
2023-04-18T08:51:18.798Z,55.08
2023-04-18T08:52:18.738Z,38.11
2023-04-18T08:53:18.782Z,47.66
2023-04-18T08:54:18.830Z,48.42
2023-04-18T08:55:18.881Z,43.56
2023-04-18T08:56:18.977Z,36.93
2023-04-18T08:57:19.005Z,36.57
2023-04-18T08:58:19.074Z,32.92
2023-04-18T08:59:19.105Z,22.14
2023-04-18T09:00:19.187Z,24.62
2023-04-18T09:01:19.303Z,29.76
2023-04-18T09:02:19.406Z,29.77
2023-04-18T09:03:19.432Z,26.85
2023-04-18T09:04:19.485Z,32.60
2023-04-18T09:05:19.486Z,26.50
2023-04-18T09:06:19.609Z,25.52
2023-04-18T09:07:19.571Z,28.96
2023-04-18T09:08:19.656Z,23.36
2023-04-18T09:09:19.725Z,25.64
2023-04-18T09:10:19.788Z,25.00
2023-04-18T09:11:19.863Z,34.63
2023-04-18T09:12:19.906Z,35.09
2023-04-18T09:13:19.970Z,34.21
2023-04-18T09:14:20.017Z,30.58
2023-04-18T09:15:20.085Z,27.75
2023-04-18T09:16:20.151Z,28.68
2023-04-18T09:17:20.196Z,27.99
2023-04-18T09:18:20.286Z,30.27
2023-04-18T09:19:20.321Z,27.91
2023-04-18T09:20:20.509Z,27.76
2023-04-18T09:21:20.460Z,26.50
2023-04-18T09:22:20.547Z,27.26
2023-04-18T09:23:20.549Z,28.44
2023-04-18T09:24:20.640Z,30.42
2023-04-18T09:25:20.682Z,28.58
2023-04-18T09:26:20.818Z,33.51
2023-04-18T09:27:20.741Z,36.35
2023-04-18T09:28:20.840Z,40.18
2023-04-18T09:29:20.871Z,40.01
2023-04-18T09:30:20.902Z,35.17
2023-04-18T09:31:21.327Z,39.36
2023-04-18T09:32:21.003Z,38.75
2023-04-18T09:33:21.050Z,43.91
2023-04-18T09:34:21.105Z,36.25
2023-04-18T09:35:21.134Z,45.54
2023-04-18T09:36:21.540Z,39.64
2023-04-18T09:37:21.230Z,49.04
2023-04-18T09:38:21.270Z,49.45
2023-04-18T09:39:21.324Z,47.25
2023-04-18T09:40:21.334Z,48.25
2023-04-18T09:41:21.794Z,46.18
2023-04-18T09:42:21.419Z,47.85
2023-04-18T09:43:21.599Z,32.69
2023-04-18T09:44:21.507Z,29.26
2023-04-18T09:45:21.528Z,27.27
2023-04-18T09:46:21.892Z,43.59
2023-04-18T09:47:21.648Z,40.36
2023-04-18T09:48:21.673Z,44.70
2023-04-18T09:49:21.737Z,47.17
2023-04-18T09:50:21.741Z,52.05
2023-04-18T09:51:21.803Z,51.22
2023-04-18T09:52:21.789Z,51.85
2023-04-18T09:53:21.783Z,59.62
2023-04-18T09:54:21.791Z,60.94
2023-04-18T09:55:21.793Z,62.65
2023-04-18T09:56:21.814Z,66.45
2023-04-18T09:57:21.819Z,69.94
2023-04-18T09:58:21.783Z,71.18
2023-04-18T09:59:21.841Z,74.47
2023-04-18T10:00:21.912Z,75.87
2023-04-18T10:01:21.967Z,79.81
2023-04-18T10:02:21.960Z,82.37
2023-04-18T10:03:22.023Z,84.73
2023-04-18T10:04:22.049Z,87.06
2023-04-18T10:05:21.917Z,89.87
2023-04-18T10:06:21.926Z,91.68
2023-04-18T10:07:21.997Z,92.74
2023-04-18T10:08:22.157Z,97.78
2023-04-18T10:09:22.816Z,99.89
2023-04-18T10:10:22.025Z,101.04
2023-04-18T10:11:22.087Z,103.27
2023-04-18T10:12:22.132Z,104.46
2023-04-18T10:13:22.157Z,107.22
2023-04-18T10:14:22.191Z,110.53
2023-04-18T10:15:22.283Z,111.51
2023-04-18T10:16:22.376Z,114.27
2023-04-18T10:17:22.512Z,116.38
2023-04-18T10:18:22.464Z,117.67
2023-04-18T10:19:22.511Z,120.58
2023-04-18T10:20:22.702Z,120.94
2023-04-18T10:21:22.621Z,122.92
2023-04-18T10:22:22.687Z,126.23
2023-04-18T10:23:22.744Z,129.42
2023-04-18T10:24:22.779Z,130.20
2023-04-18T10:25:22.850Z,131.83
2023-04-18T10:26:22.928Z,134.34
2023-04-18T10:27:22.951Z,136.95
2023-04-18T10:28:22.993Z,137.10
2023-04-18T10:29:23.049Z,138.27
2023-04-18T10:30:23.084Z,139.83
2023-04-18T10:31:23.374Z,143.23
2023-04-18T10:32:23.308Z,144.53
2023-04-18T10:33:30.391Z,146.63
2023-04-18T10:34:24.232Z,146.66
2023-04-18T10:35:23.223Z,146.80
2023-04-18T10:36:23.309Z,146.76
2023-04-18T10:37:23.196Z,147.36
2023-04-18T10:38:23.232Z,146.87
2023-04-18T10:39:23.204Z,152.59
2023-04-18T10:40:23.184Z,150.92
2023-04-18T10:41:23.308Z,153.27
2023-04-18T10:42:23.163Z,154.01
2023-04-18T10:43:23.157Z,140.10
2023-04-18T10:44:23.528Z,149.31
2023-04-18T10:45:23.212Z,149.47
2023-04-18T10:46:31.839Z,148.21
2023-04-18T10:47:24.411Z,148.41
2023-04-18T10:48:23.340Z,138.44
2023-04-18T10:49:25.848Z,138.05
2023-04-18T10:50:23.306Z,121.06
2023-04-18T10:51:23.314Z,83.73
2023-04-18T10:52:23.283Z,94.78
2023-04-18T10:53:23.245Z,73.35
2023-04-18T10:54:23.274Z,51.14
2023-04-18T10:55:23.236Z,21.16
2023-04-18T10:56:23.237Z,25.00
2023-04-18T10:57:23.230Z,29.97
2023-04-18T10:58:23.215Z,39.66
2023-04-18T10:59:23.228Z,29.04
2023-04-18T11:00:23.218Z,26.43
2023-04-18T11:01:23.275Z,25.00
2023-04-18T11:02:23.276Z,38.77
2023-04-18T11:03:23.221Z,41.44
2023-04-18T11:04:23.199Z,40.51
2023-04-18T11:05:23.183Z,45.36
2023-04-18T11:06:23.165Z,40.32
2023-04-18T11:07:23.165Z,34.29
2023-04-18T11:08:23.130Z,9.36
2023-04-18T11:09:23.121Z,25.26
2023-04-18T11:10:23.157Z,20.10
2023-04-18T11:11:23.122Z,23.41
2023-04-18T11:12:23.185Z,34.09
2023-04-18T11:13:23.117Z,28.42
2023-04-18T11:14:23.108Z,51.51
2023-04-18T11:15:23.146Z,38.71
2023-04-18T11:16:23.146Z,45.27
2023-04-18T11:17:23.151Z,59.30
2023-04-18T11:18:23.077Z,62.95
2023-04-18T11:19:23.048Z,76.05
2023-04-18T11:20:23.063Z,44.47
2023-04-18T11:21:23.069Z,32.48
2023-04-18T11:22:23.350Z,55.45
2023-04-18T11:23:23.117Z,45.17
2023-04-18T11:24:23.153Z,55.02
2023-04-18T11:25:23.129Z,38.74
2023-04-18T11:26:23.268Z,35.85
2023-04-18T11:27:23.364Z,55.02
2023-04-18T11:28:23.240Z,59.73
2023-04-18T11:29:23.230Z,57.23
2023-04-18T11:30:23.266Z,69.69
2023-04-18T11:31:23.324Z,82.34
2023-04-18T11:32:23.536Z,87.24
2023-04-18T11:33:23.374Z,95.33
2023-04-18T11:34:23.343Z,95.54
2023-04-18T11:35:23.333Z,91.69
2023-04-18T11:36:23.339Z,100.05
2023-04-18T11:37:23.871Z,102.28
2023-04-18T11:38:24.307Z,102.84
2023-04-18T11:39:23.351Z,103.36
2023-04-18T11:40:23.352Z,101.12
2023-04-18T11:41:23.337Z,103.40
2023-04-18T11:42:23.347Z,104.90
2023-04-18T11:43:23.353Z,104.99
2023-04-18T11:44:23.336Z,103.79
2023-04-18T11:45:23.333Z,104.36
2023-04-18T11:46:23.373Z,105.23
2023-04-18T11:47:23.351Z,103.90
2023-04-18T11:48:23.418Z,103.81
2023-04-18T11:49:23.349Z,106.25
2023-04-18T11:50:23.335Z,104.53
2023-04-18T11:51:23.342Z,106.20
2023-04-18T11:52:23.353Z,104.82
2023-04-18T11:53:23.352Z,104.99
2023-04-18T11:54:23.347Z,104.80
2023-04-18T11:55:23.331Z,105.32
2023-04-18T11:56:23.355Z,106.72
2023-04-18T11:57:23.342Z,106.26
2023-04-18T11:58:23.357Z,105.04
2023-04-18T11:59:23.357Z,105.03
2023-04-18T12:00:23.374Z,101.98
2023-04-18T12:01:24.374Z,101.57
2023-04-18T12:02:23.429Z,103.52
2023-04-18T12:03:23.505Z,100.87
2023-04-18T12:04:23.719Z,98.76
2023-04-18T12:05:23.619Z,99.57
2023-04-18T12:06:23.455Z,99.26
2023-04-18T12:07:23.419Z,99.23
2023-04-18T12:08:23.355Z,97.61
2023-04-18T12:09:23.359Z,96.64
2023-04-18T12:10:23.346Z,95.85
2023-04-18T12:11:23.364Z,94.90
2023-04-18T12:12:23.333Z,94.52
2023-04-18T12:13:23.353Z,93.84
2023-04-18T12:14:23.316Z,85.06
2023-04-18T12:15:23.348Z,84.47
2023-04-18T12:16:23.448Z,84.48
2023-04-18T12:17:23.372Z,86.57
2023-04-18T12:18:23.334Z,87.32
2023-04-18T12:19:23.337Z,89.20
2023-04-18T12:20:23.343Z,90.16
2023-04-18T12:21:23.352Z,88.02
2023-04-18T12:22:23.367Z,85.77
2023-04-18T12:23:23.374Z,86.73
2023-04-18T12:24:23.879Z,88.30
2023-04-18T12:25:25.175Z,89.45
2023-04-18T12:26:23.350Z,91.62
2023-04-18T12:27:23.338Z,91.52
2023-04-18T12:28:23.317Z,92.60
2023-04-18T12:29:23.300Z,94.55
2023-04-18T12:30:23.303Z,94.75
2023-04-18T12:31:23.358Z,94.59
2023-04-18T12:32:23.339Z,96.20
2023-04-18T12:33:23.270Z,95.30
2023-04-18T12:34:23.291Z,97.18
2023-04-18T12:35:23.296Z,98.96
2023-04-18T12:36:23.278Z,100.10
2023-04-18T12:37:23.268Z,101.54
2023-04-18T12:38:23.241Z,102.47
2023-04-18T12:39:23.250Z,102.65
2023-04-18T12:40:23.299Z,103.38
2023-04-18T12:41:23.260Z,103.34
2023-04-18T12:42:23.240Z,105.10
2023-04-18T12:43:23.250Z,104.03
2023-04-18T12:44:23.246Z,105.68
2023-04-18T12:45:23.210Z,106.37